sensor_id;sensor_type;location;lat;lon;timestamp;pressure;altitude;pressure_sealevel;temperature;humidity
49689;BME280;70518;51.400;7.428;2024-02-15T00:00:44;158538.56;;;17.79;96.05
49689;BME280;70518;51.400;7.428;2024-02-15T00:03:10;158542.44;;;17.80;95.55
49689;BME280;70518;51.400;7.428;2024-02-15T00:05:38;158534.66;;;17.77;95.90
49689;BME280;70518;51.400;7.428;2024-02-15T00:08:03;158542.44;;;17.80;95.62
49689;BME280;70518;51.400;7.428;2024-02-15T00:10:29;158532.03;;;17.76;96.22
49689;BME280;70518;51.400;7.428;2024-02-15T00:12:54;158529.47;;;17.75;96.17
49689;BME280;70518;51.400;7.428;2024-02-15T00:15:20;158543.72;;;17.81;95.99
49689;BME280;70518;51.400;7.428;2024-02-15T00:17:45;158550.19;;;17.83;95.36
49689;BME280;70518;51.400;7.428;2024-02-15T00:20:13;158567.06;;;17.90;95.38
49689;BME280;70518;51.400;7.428;2024-02-15T00:22:38;158539.81;;;17.79;95.79
49689;BME280;70518;51.400;7.428;2024-02-15T00:25:06;158533.34;;;17.76;96.18
49689;BME280;70518;51.400;7.428;2024-02-15T00:27:33;158591.69;;;17.99;94.46
49689;BME280;70518;51.400;7.428;2024-02-15T00:29:59;158582.59;;;17.96;94.44
49689;BME280;70518;51.400;7.428;2024-02-15T00:32:25;158551.50;;;17.84;95.30
49689;BME280;70518;51.400;7.428;2024-02-15T00:34:50;158548.91;;;17.83;95.36
49689;BME280;70518;51.400;7.428;2024-02-15T00:37:15;158552.81;;;17.84;95.70
49689;BME280;70518;51.400;7.428;2024-02-15T00:39:41;158564.44;;;17.89;95.66
49689;BME280;70518;51.400;7.428;2024-02-15T00:42:07;158545.03;;;17.81;96.10
49689;BME280;70518;51.400;7.428;2024-02-15T00:44:37;158563.16;;;17.88;95.63
49689;BME280;70518;51.400;7.428;2024-02-15T00:47:02;158570.91;;;17.91;95.47
49689;BME280;70518;51.400;7.428;2024-02-15T00:49:27;158596.84;;;18.01;94.91
49689;BME280;70518;51.400;7.428;2024-02-15T00:51:53;158594.25;;;18.00;94.94
49689;BME280;70518;51.400;7.428;2024-02-15T00:54:18;158591.69;;;17.99;94.79
49689;BME280;70518;51.400;7.428;2024-02-15T00:56:43;158582.59;;;17.96;95.38
49689;BME280;70518;51.400;7.428;2024-02-15T00:59:08;158560.59;;;17.87;96.12
49689;BME280;70518;51.400;7.428;2024-02-15T01:01:34;158567.06;;;17.90;95.70
49689;BME280;70518;51.400;7.428;2024-02-15T01:04:02;158586.47;;;17.97;95.45
49689;BME280;70518;51.400;7.428;2024-02-15T01:06:28;158594.25;;;18.00;94.99
49689;BME280;70518;51.400;7.428;2024-02-15T01:08:53;158585.16;;;17.97;95.11
49689;BME280;70518;51.400;7.428;2024-02-15T01:11:18;158572.22;;;17.92;95.31
49689;BME280;70518;51.400;7.428;2024-02-15T01:13:43;158577.38;;;17.94;95.17
49689;BME280;70518;51.400;7.428;2024-02-15T01:16:09;158572.22;;;17.92;95.75
49689;BME280;70518;51.400;7.428;2024-02-15T01:18:34;158585.16;;;17.97;95.64
49689;BME280;70518;51.400;7.428;2024-02-15T01:20:59;158582.59;;;17.96;95.40
49689;BME280;70518;51.400;7.428;2024-02-15T01:23:25;158600.72;;;18.03;94.85
49689;BME280;70518;51.400;7.428;2024-02-15T01:25:51;158612.41;;;18.07;94.77
49689;BME280;70518;51.400;7.428;2024-02-15T01:28:16;158603.34;;;18.04;95.08
49689;BME280;70518;51.400;7.428;2024-02-15T01:30:41;158605.94;;;18.05;94.64
49689;BME280;70518;51.400;7.428;2024-02-15T01:33:08;158594.25;;;18.00;95.47
49689;BME280;70518;51.400;7.428;2024-02-15T01:35:34;158585.16;;;17.97;95.44
49689;BME280;70518;51.400;7.428;2024-02-15T01:38:00;158573.53;;;17.92;95.51
49689;BME280;70518;51.400;7.428;2024-02-15T01:40:25;158582.59;;;17.96;95.62
49689;BME280;70518;51.400;7.428;2024-02-15T01:42:50;158552.81;;;17.84;96.17
49689;BME280;70518;51.400;7.428;2024-02-15T01:45:16;158576.13;;;17.93;95.46
49689;BME280;70518;51.400;7.428;2024-02-15T01:47:41;158592.94;;;18.00;95.56
49689;BME280;70518;51.400;7.428;2024-02-15T01:50:08;158589.09;;;17.98;95.52
49689;BME280;70518;51.400;7.428;2024-02-15T01:52:34;158591.69;;;17.99;95.35
49689;BME280;70518;51.400;7.428;2024-02-15T01:54:59;158586.47;;;17.97;95.80
49689;BME280;70518;51.400;7.428;2024-02-15T01:57:31;158600.72;;;18.03;95.07
49689;BME280;70518;51.400;7.428;2024-02-15T01:59:57;158609.78;;;18.06;94.58
49689;BME280;70518;51.400;7.428;2024-02-15T02:02:22;158616.28;;;18.09;94.86
49689;BME280;70518;51.400;7.428;2024-02-15T02:04:47;158600.72;;;18.03;95.16
49689;BME280;70518;51.400;7.428;2024-02-15T02:07:13;158609.78;;;18.06;95.17
49689;BME280;70518;51.400;7.428;2024-02-15T02:09:39;158615.00;;;18.08;95.01
49689;BME280;70518;51.400;7.428;2024-02-15T02:12:04;158613.72;;;18.08;95.09
49689;BME280;70518;51.400;7.428;2024-02-15T02:14:30;158635.75;;;18.16;94.29
49689;BME280;70518;51.400;7.428;2024-02-15T02:16:55;158664.25;;;18.27;93.57
49689;BME280;70518;51.400;7.428;2024-02-15T02:19:20;158643.53;;;18.19;93.59
49689;BME280;70518;51.400;7.428;2024-02-15T02:21:45;158638.31;;;18.17;94.12
49689;BME280;70518;51.400;7.428;2024-02-15T02:24:18;158618.88;;;18.10;94.35
49689;BME280;70518;51.400;7.428;2024-02-15T02:26:44;158609.78;;;18.06;95.04
49689;BME280;70518;51.400;7.428;2024-02-15T02:29:10;158586.47;;;17.97;95.60
49689;BME280;70518;51.400;7.428;2024-02-15T02:31:35;158589.09;;;17.98;96.01
49689;BME280;70518;51.400;7.428;2024-02-15T02:34:00;158596.84;;;18.01;95.42
49689;BME280;70518;51.400;7.428;2024-02-15T02:36:26;158603.34;;;18.04;95.37
49689;BME280;70518;51.400;7.428;2024-02-15T02:38:51;158607.25;;;18.05;95.16
49689;BME280;70518;51.400;7.428;2024-02-15T02:41:17;158598.16;;;18.02;95.03
49689;BME280;70518;51.400;7.428;2024-02-15T02:43:44;158612.41;;;18.07;94.87
49689;BME280;70518;51.400;7.428;2024-02-15T02:46:09;158608.50;;;18.06;94.69
49689;BME280;70518;51.400;7.428;2024-02-15T02:48:35;158630.53;;;18.14;94.11
49689;BME280;70518;51.400;7.428;2024-02-15T02:51:00;158618.88;;;18.10;94.18
49689;BME280;70518;51.400;7.428;2024-02-15T02:53:26;158626.66;;;18.13;94.11
49689;BME280;70518;51.400;7.428;2024-02-15T02:55:51;158642.22;;;18.19;93.55
49689;BME280;70518;51.400;7.428;2024-02-15T02:58:16;158653.84;;;18.23;93.14
49689;BME280;70518;51.400;7.428;2024-02-15T03:00:42;158640.91;;;18.18;93.43
49689;BME280;70518;51.400;7.428;2024-02-15T03:03:07;158656.47;;;18.24;92.87
49689;BME280;70518;51.400;7.428;2024-02-15T03:05:32;158651.28;;;18.22;93.06
49689;BME280;70518;51.400;7.428;2024-02-15T03:07:58;158642.22;;;18.19;93.30
49689;BME280;70518;51.400;7.428;2024-02-15T03:10:23;158640.91;;;18.18;93.32
49689;BME280;70518;51.400;7.428;2024-02-15T03:12:49;158640.91;;;18.18;93.10
49689;BME280;70518;51.400;7.428;2024-02-15T03:15:15;158631.81;;;18.15;93.38
49689;BME280;70518;51.400;7.428;2024-02-15T03:17:40;158646.06;;;18.20;93.19
49689;BME280;70518;51.400;7.428;2024-02-15T03:20:06;158650.00;;;18.22;92.73
49689;BME280;70518;51.400;7.428;2024-02-15T03:22:36;158640.91;;;18.18;93.08
49689;BME280;70518;51.400;7.428;2024-02-15T03:25:03;158633.13;;;18.15;93.28
49689;BME280;70518;51.400;7.428;2024-02-15T03:27:32;158618.88;;;18.10;93.63
49689;BME280;70518;51.400;7.428;2024-02-15T03:29:57;158608.50;;;18.06;94.16
49689;BME280;70518;51.400;7.428;2024-02-15T03:32:23;158615.00;;;18.08;93.35
49689;BME280;70518;51.400;7.428;2024-02-15T03:34:48;158617.56;;;18.09;93.45
49689;BME280;70518;51.400;7.428;2024-02-15T03:37:14;158617.56;;;18.09;92.92
49689;BME280;70518;51.400;7.428;2024-02-15T03:39:39;158613.72;;;18.08;93.15
49689;BME280;70518;51.400;7.428;2024-02-15T03:42:04;158586.47;;;17.97;93.76
49689;BME280;70518;51.400;7.428;2024-02-15T03:44:30;158599.47;;;18.02;93.47
49689;BME280;70518;51.400;7.428;2024-02-15T03:46:56;158600.72;;;18.03;93.75
49689;BME280;70518;51.400;7.428;2024-02-15T03:49:21;158613.72;;;18.08;93.26
49689;BME280;70518;51.400;7.428;2024-02-15T03:51:47;158591.69;;;17.99;93.32
49689;BME280;70518;51.400;7.428;2024-02-15T03:54:13;158592.94;;;18.00;93.77
49689;BME280;70518;51.400;7.428;2024-02-15T03:56:48;158605.94;;;18.05;93.07
49689;BME280;70518;51.400;7.428;2024-02-15T03:59:16;158604.63;;;18.04;93.09
49689;BME280;70518;51.400;7.428;2024-02-15T04:01:41;158581.31;;;17.95;94.06
49689;BME280;70518;51.400;7.428;2024-02-15T04:04:06;158583.91;;;17.96;94.01
49689;BME280;70518;51.400;7.428;2024-02-15T04:06:32;158603.34;;;18.04;93.05
49689;BME280;70518;51.400;7.428;2024-02-15T04:08:58;158587.78;;;17.98;93.29
49689;BME280;70518;51.400;7.428;2024-02-15T04:11:24;158600.72;;;18.03;93.17
49689;BME280;70518;51.400;7.428;2024-02-15T04:13:50;158594.25;;;18.00;93.54
49689;BME280;70518;51.400;7.428;2024-02-15T04:16:15;158594.25;;;18.00;93.09
49689;BME280;70518;51.400;7.428;2024-02-15T04:18:41;158569.63;;;17.91;94.12
49689;BME280;70518;51.400;7.428;2024-02-15T04:21:07;158582.59;;;17.96;93.61
49689;BME280;70518;51.400;7.428;2024-02-15T04:23:33;158611.09;;;18.07;92.99
49689;BME280;70518;51.400;7.428;2024-02-15T04:25:58;158600.72;;;18.03;92.98
49689;BME280;70518;51.400;7.428;2024-02-15T04:28:24;158586.47;;;17.97;93.46
49689;BME280;70518;51.400;7.428;2024-02-15T04:30:50;158592.94;;;18.00;93.21
49689;BME280;70518;51.400;7.428;2024-02-15T04:33:15;158596.84;;;18.01;92.84
49689;BME280;70518;51.400;7.428;2024-02-15T04:35:41;158616.28;;;18.09;92.23
49689;BME280;70518;51.400;7.428;2024-02-15T04:38:07;158633.13;;;18.15;91.78
49689;BME280;70518;51.400;7.428;2024-02-15T04:40:33;158604.63;;;18.04;92.45
49689;BME280;70518;51.400;7.428;2024-02-15T04:42:58;158605.94;;;18.05;92.63
49689;BME280;70518;51.400;7.428;2024-02-15T04:45:24;158631.81;;;18.15;91.62
49689;BME280;70518;51.400;7.428;2024-02-15T04:47:49;158622.75;;;18.11;91.88
49689;BME280;70518;51.400;7.428;2024-02-15T04:50:17;158613.72;;;18.08;92.03
49689;BME280;70518;51.400;7.428;2024-02-15T04:52:43;158595.56;;;18.01;92.70
49689;BME280;70518;51.400;7.428;2024-02-15T04:55:10;158595.56;;;18.01;92.80
49689;BME280;70518;51.400;7.428;2024-02-15T04:57:35;158604.63;;;18.04;92.96
49689;BME280;70518;51.400;7.428;2024-02-15T05:00:02;158626.66;;;18.13;92.13
49689;BME280;70518;51.400;7.428;2024-02-15T05:02:30;158629.25;;;18.14;91.50
49689;BME280;70518;51.400;7.428;2024-02-15T05:04:55;158572.22;;;17.92;93.35
49689;BME280;70518;51.400;7.428;2024-02-15T05:07:21;158589.09;;;17.98;92.54
49689;BME280;70518;51.400;7.428;2024-02-15T05:09:47;158621.50;;;18.11;92.02
49689;BME280;70518;51.400;7.428;2024-02-15T05:12:20;158630.53;;;18.14;91.28
49689;BME280;70518;51.400;7.428;2024-02-15T05:14:46;158609.78;;;18.06;92.12
49689;BME280;70518;51.400;7.428;2024-02-15T05:17:11;158599.47;;;18.02;92.24
49689;BME280;70518;51.400;7.428;2024-02-15T05:19:37;158577.38;;;17.94;92.96
49689;BME280;70518;51.400;7.428;2024-02-15T05:22:02;158583.91;;;17.96;92.65
49689;BME280;70518;51.400;7.428;2024-02-15T05:24:30;158587.78;;;17.98;92.50
49689;BME280;70518;51.400;7.428;2024-02-15T05:26:55;158577.38;;;17.94;92.95
49689;BME280;70518;51.400;7.428;2024-02-15T05:29:21;158599.47;;;18.02;92.28
49689;BME280;70518;51.400;7.428;2024-02-15T05:31:48;158594.25;;;18.00;92.18
49689;BME280;70518;51.400;7.428;2024-02-15T05:34:16;158590.38;;;17.99;92.12
49689;BME280;70518;51.400;7.428;2024-02-15T05:36:42;158570.91;;;17.91;92.18
49689;BME280;70518;51.400;7.428;2024-02-15T05:39:07;158563.16;;;17.88;92.86
49689;BME280;70518;51.400;7.428;2024-02-15T05:41:33;158565.75;;;17.89;92.70
49689;BME280;70518;51.400;7.428;2024-02-15T05:43:59;158589.09;;;17.98;91.92
49689;BME280;70518;51.400;7.428;2024-02-15T05:46:24;158569.63;;;17.91;92.36
49689;BME280;70518;51.400;7.428;2024-02-15T05:48:50;158580.00;;;17.95;91.61
49689;BME280;70518;51.400;7.428;2024-02-15T05:51:16;158561.84;;;17.88;92.24
49689;BME280;70518;51.400;7.428;2024-02-15T05:53:41;158576.13;;;17.93;91.90
49689;BME280;70518;51.400;7.428;2024-02-15T05:56:07;158586.47;;;17.97;91.65
49689;BME280;70518;51.400;7.428;2024-02-15T05:58:33;158586.47;;;17.97;91.84
49689;BME280;70518;51.400;7.428;2024-02-15T06:00:59;158573.53;;;17.92;92.24
49689;BME280;70518;51.400;7.428;2024-02-15T06:03:28;158581.31;;;17.95;92.04
49689;BME280;70518;51.400;7.428;2024-02-15T06:05:53;158599.47;;;18.02;91.14
49689;BME280;70518;51.400;7.428;2024-02-15T06:08:23;158581.31;;;17.95;91.79
49689;BME280;70518;51.400;7.428;2024-02-15T06:10:48;158551.50;;;17.84;92.57
49689;BME280;70518;51.400;7.428;2024-02-15T06:13:13;158542.44;;;17.80;92.68
49689;BME280;70518;51.400;7.428;2024-02-15T06:15:39;158563.16;;;17.88;92.20
49689;BME280;70518;51.400;7.428;2024-02-15T06:18:04;158551.50;;;17.84;92.18
49689;BME280;70518;51.400;7.428;2024-02-15T06:20:33;158550.19;;;17.83;92.36
49689;BME280;70518;51.400;7.428;2024-02-15T06:22:59;158555.38;;;17.85;91.72
49689;BME280;70518;51.400;7.428;2024-02-15T06:25:24;158554.06;;;17.85;92.01
49689;BME280;70518;51.400;7.428;2024-02-15T06:27:51;158568.34;;;17.90;91.72
49689;BME280;70518;51.400;7.428;2024-02-15T06:30:23;158568.34;;;17.90;91.64
49689;BME280;70518;51.400;7.428;2024-02-15T06:33:06;158580.00;;;17.95;91.52
49689;BME280;70518;51.400;7.428;2024-02-15T06:35:50;158576.13;;;17.93;91.80
49689;BME280;70518;51.400;7.428;2024-02-15T06:38:34;158582.59;;;17.96;91.19
49689;BME280;70518;51.400;7.428;2024-02-15T06:41:35;158594.25;;;18.00;91.01
49689;BME280;70518;51.400;7.428;2024-02-15T06:44:00;158599.47;;;18.02;90.76
49689;BME280;70518;51.400;7.428;2024-02-15T06:46:26;158576.13;;;17.93;91.28
49689;BME280;70518;51.400;7.428;2024-02-15T06:48:51;158565.75;;;17.89;91.50
49689;BME280;70518;51.400;7.428;2024-02-15T06:51:17;158570.91;;;17.91;91.66
49689;BME280;70518;51.400;7.428;2024-02-15T06:53:43;158557.97;;;17.86;92.01
49689;BME280;70518;51.400;7.428;2024-02-15T06:56:09;158580.00;;;17.95;91.71
49689;BME280;70518;51.400;7.428;2024-02-15T06:58:35;158560.59;;;17.87;92.14
49689;BME280;70518;51.400;7.428;2024-02-15T07:01:00;158535.94;;;17.77;92.97
49689;BME280;70518;51.400;7.428;2024-02-15T07:03:25;158547.59;;;17.82;92.70
49689;BME280;70518;51.400;7.428;2024-02-15T07:05:50;158538.56;;;17.79;92.90
49689;BME280;70518;51.400;7.428;2024-02-15T07:08:16;158541.13;;;17.80;92.84
49689;BME280;70518;51.400;7.428;2024-02-15T07:10:44;158590.38;;;17.99;91.42
49689;BME280;70518;51.400;7.428;2024-02-15T07:13:09;158557.97;;;17.86;92.64
49689;BME280;70518;51.400;7.428;2024-02-15T07:15:35;158554.06;;;17.85;92.48
49689;BME280;70518;51.400;7.428;2024-02-15T07:18:06;158590.38;;;17.99;91.69
49689;BME280;70518;51.400;7.428;2024-02-15T07:20:31;158594.25;;;18.00;91.47
49689;BME280;70518;51.400;7.428;2024-02-15T07:22:57;158592.94;;;18.00;91.39
49689;BME280;70518;51.400;7.428;2024-02-15T07:25:23;158599.47;;;18.02;91.26
49689;BME280;70518;51.400;7.428;2024-02-15T07:27:48;158595.56;;;18.01;91.33
49689;BME280;70518;51.400;7.428;2024-02-15T07:30:13;158608.50;;;18.06;91.17
49689;BME280;70518;51.400;7.428;2024-02-15T07:32:39;158607.25;;;18.05;90.90
49689;BME280;70518;51.400;7.428;2024-02-15T07:35:05;158599.47;;;18.02;90.92
49689;BME280;70518;51.400;7.428;2024-02-15T07:37:32;158565.75;;;17.89;91.85
49689;BME280;70518;51.400;7.428;2024-02-15T07:39:58;158573.53;;;17.92;91.89
49689;BME280;70518;51.400;7.428;2024-02-15T07:42:24;158560.59;;;17.87;92.49
49689;BME280;70518;51.400;7.428;2024-02-15T07:44:50;158572.22;;;17.92;92.41
49689;BME280;70518;51.400;7.428;2024-02-15T07:47:15;158577.38;;;17.94;92.11
49689;BME280;70518;51.400;7.428;2024-02-15T07:49:45;158556.69;;;17.86;92.63
49689;BME280;70518;51.400;7.428;2024-02-15T07:52:10;158559.28;;;17.87;92.94
49689;BME280;70518;51.400;7.428;2024-02-15T07:54:35;158578.69;;;17.94;92.20
49689;BME280;70518;51.400;7.428;2024-02-15T07:57:00;158569.63;;;17.91;92.79
49689;BME280;70518;51.400;7.428;2024-02-15T07:59:25;158563.16;;;17.88;92.74
49689;BME280;70518;51.400;7.428;2024-02-15T08:01:51;158594.25;;;18.00;91.94
49689;BME280;70518;51.400;7.428;2024-02-15T08:04:16;158569.63;;;17.91;92.94
49689;BME280;70518;51.400;7.428;2024-02-15T08:06:42;158580.00;;;17.95;92.62
49689;BME280;70518;51.400;7.428;2024-02-15T08:09:08;158572.22;;;17.92;92.96
49689;BME280;70518;51.400;7.428;2024-02-15T08:11:38;158565.75;;;17.89;93.21
49689;BME280;70518;51.400;7.428;2024-02-15T08:14:05;158560.59;;;17.87;93.57
49689;BME280;70518;51.400;7.428;2024-02-15T08:16:33;158572.22;;;17.92;93.34
49689;BME280;70518;51.400;7.428;2024-02-15T08:18:59;158602.03;;;18.03;92.48
49689;BME280;70518;51.400;7.428;2024-02-15T08:21:29;158582.59;;;17.96;92.97
49689;BME280;70518;51.400;7.428;2024-02-15T08:23:54;158599.47;;;18.02;92.59
49689;BME280;70518;51.400;7.428;2024-02-15T08:26:20;158611.09;;;18.07;92.25
49689;BME280;70518;51.400;7.428;2024-02-15T08:28:45;158633.13;;;18.15;91.64
49689;BME280;70518;51.400;7.428;2024-02-15T08:31:11;158605.94;;;18.05;92.41
49689;BME280;70518;51.400;7.428;2024-02-15T08:33:39;158624.03;;;18.12;91.92
49689;BME280;70518;51.400;7.428;2024-02-15T08:36:05;158620.19;;;18.10;92.37
49689;BME280;70518;51.400;7.428;2024-02-15T08:38:30;158622.75;;;18.11;91.92
49689;BME280;70518;51.400;7.428;2024-02-15T08:40:55;158630.53;;;18.14;92.32
49689;BME280;70518;51.400;7.428;2024-02-15T08:43:20;158639.59;;;18.18;91.73
49689;BME280;70518;51.400;7.428;2024-02-15T08:45:46;158624.03;;;18.12;91.74
49689;BME280;70518;51.400;7.428;2024-02-15T08:48:11;158618.88;;;18.10;92.22
49689;BME280;70518;51.400;7.428;2024-02-15T08:50:36;158634.44;;;18.16;91.87
49689;BME280;70518;51.400;7.428;2024-02-15T08:53:02;158643.53;;;18.19;91.35
49689;BME280;70518;51.400;7.428;2024-02-15T08:55:31;158622.75;;;18.11;92.30
49689;BME280;70518;51.400;7.428;2024-02-15T08:57:56;158612.41;;;18.07;92.53
49689;BME280;70518;51.400;7.428;2024-02-15T09:00:21;158592.94;;;18.00;92.92
49689;BME280;70518;51.400;7.428;2024-02-15T09:02:47;158598.16;;;18.02;92.95
49689;BME280;70518;51.400;7.428;2024-02-15T09:05:12;158596.84;;;18.01;93.35
49689;BME280;70518;51.400;7.428;2024-02-15T09:07:40;158621.50;;;18.11;92.59
49689;BME280;70518;51.400;7.428;2024-02-15T09:10:08;158652.59;;;18.23;91.77
49689;BME280;70518;51.400;7.428;2024-02-15T09:12:35;158637.03;;;18.17;92.19
49689;BME280;70518;51.400;7.428;2024-02-15T09:15:02;158624.03;;;18.12;92.53
49689;BME280;70518;51.400;7.428;2024-02-15T09:17:27;158651.28;;;18.22;91.73
49689;BME280;70518;51.400;7.428;2024-02-15T09:19:53;158635.75;;;18.16;92.35
49689;BME280;70518;51.400;7.428;2024-02-15T09:22:19;158662.94;;;18.27;91.60
49689;BME280;70518;51.400;7.428;2024-02-15T09:24:45;158675.94;;;18.32;91.27
49689;BME280;70518;51.400;7.428;2024-02-15T09:27:10;158668.16;;;18.29;91.53
49689;BME280;70518;51.400;7.428;2024-02-15T09:29:37;158672.03;;;18.30;91.40
49689;BME280;70518;51.400;7.428;2024-02-15T09:32:03;158664.25;;;18.27;91.81
49689;BME280;70518;51.400;7.428;2024-02-15T09:34:29;158687.56;;;18.37;90.95
49689;BME280;70518;51.400;7.428;2024-02-15T09:36:54;158668.16;;;18.29;91.67
49689;BME280;70518;51.400;7.428;2024-02-15T09:39:21;158652.59;;;18.23;92.48
49689;BME280;70518;51.400;7.428;2024-02-15T09:41:48;158682.41;;;18.35;91.66
49689;BME280;70518;51.400;7.428;2024-02-15T09:44:20;158687.56;;;18.37;91.54
49689;BME280;70518;51.400;7.428;2024-02-15T09:46:46;158694.03;;;18.39;91.50
49689;BME280;70518;51.400;7.428;2024-02-15T09:49:18;158690.19;;;18.38;91.59
49689;BME280;70518;51.400;7.428;2024-02-15T09:51:45;158697.97;;;18.41;91.46
49689;BME280;70518;51.400;7.428;2024-02-15T09:54:12;158687.56;;;18.37;91.64
49689;BME280;70518;51.400;7.428;2024-02-15T09:56:39;158669.41;;;18.29;91.93
49689;BME280;70518;51.400;7.428;2024-02-15T09:59:04;158673.31;;;18.31;91.51
49689;BME280;70518;51.400;7.428;2024-02-15T10:01:31;158679.78;;;18.33;91.69
49689;BME280;70518;51.400;7.428;2024-02-15T10:03:56;158701.81;;;18.42;91.10
49689;BME280;70518;51.400;7.428;2024-02-15T10:06:24;158716.06;;;18.48;90.42
49689;BME280;70518;51.400;7.428;2024-02-15T10:08:50;158727.81;;;18.52;89.91
49689;BME280;70518;51.400;7.428;2024-02-15T10:11:15;158729.13;;;18.53;89.94
49689;BME280;70518;51.400;7.428;2024-02-15T10:13:40;158726.50;;;18.52;90.66
49689;BME280;70518;51.400;7.428;2024-02-15T10:16:13;158743.38;;;18.58;90.29
49689;BME280;70518;51.400;7.428;2024-02-15T10:18:39;158744.69;;;18.59;90.45
49689;BME280;70518;51.400;7.428;2024-02-15T10:21:04;158736.91;;;18.56;90.71
49689;BME280;70518;51.400;7.428;2024-02-15T10:23:29;158751.16;;;18.61;90.13
49689;BME280;70518;51.400;7.428;2024-02-15T10:25:55;158762.81;;;18.66;89.41
49689;BME280;70518;51.400;7.428;2024-02-15T10:28:21;158752.41;;;18.62;89.97
49689;BME280;70518;51.400;7.428;2024-02-15T10:30:48;158730.38;;;18.53;89.92
49689;BME280;70518;51.400;7.428;2024-02-15T10:33:27;158734.28;;;18.55;89.87
49689;BME280;70518;51.400;7.428;2024-02-15T10:36:08;158733.00;;;18.54;90.05
49689;BME280;70518;51.400;7.428;2024-02-15T10:38:34;158738.16;;;18.56;89.81
49689;BME280;70518;51.400;7.428;2024-02-15T10:41:02;158736.91;;;18.56;89.48
49689;BME280;70518;51.400;7.428;2024-02-15T10:43:30;158735.59;;;18.55;89.54
49689;BME280;70518;51.400;7.428;2024-02-15T10:45:55;158743.38;;;18.58;88.81
49689;BME280;70518;51.400;7.428;2024-02-15T10:48:21;158743.38;;;18.58;89.35
49689;BME280;70518;51.400;7.428;2024-02-15T10:50:46;158756.31;;;18.63;89.02
49689;BME280;70518;51.400;7.428;2024-02-15T10:55:39;158769.28;;;18.68;89.01
49689;BME280;70518;51.400;7.428;2024-02-15T10:58:05;158769.28;;;18.68;87.79
49689;BME280;70518;51.400;7.428;2024-02-15T11:00:34;158787.44;;;18.75;87.68
49689;BME280;70518;51.400;7.428;2024-02-15T11:03:05;158791.31;;;18.77;87.68
49689;BME280;70518;51.400;7.428;2024-02-15T11:05:33;158784.84;;;18.74;87.40
49689;BME280;70518;51.400;7.428;2024-02-15T11:08:00;158790.06;;;18.76;86.98
49689;BME280;70518;51.400;7.428;2024-02-15T11:10:25;158765.41;;;18.67;87.48
49689;BME280;70518;51.400;7.428;2024-02-15T11:12:52;158751.16;;;18.61;87.77
49689;BME280;70518;51.400;7.428;2024-02-15T11:18:01;158752.41;;;18.62;87.91
49689;BME280;70518;51.400;7.428;2024-02-15T11:22:57;158758.94;;;18.64;86.84
49689;BME280;70518;51.400;7.428;2024-02-15T11:25:33;158778.34;;;18.72;86.18
49689;BME280;70518;51.400;7.428;2024-02-15T11:28:32;158780.97;;;18.73;86.77
49689;BME280;70518;51.400;7.428;2024-02-15T11:30:44;158788.75;;;18.76;86.13
49689;BME280;70518;51.400;7.428;2024-02-15T11:33:30;158799.09;;;18.80;85.26
49689;BME280;70518;51.400;7.428;2024-02-15T11:38:30;158808.16;;;18.83;85.02
49689;BME280;70518;51.400;7.428;2024-02-15T11:46:08;158819.88;;;18.88;84.25
49689;BME280;70518;51.400;7.428;2024-02-15T11:48:36;158841.91;;;18.97;83.94
49689;BME280;70518;51.400;7.428;2024-02-15T11:51:04;158867.81;;;19.07;79.92
49689;BME280;70518;51.400;7.428;2024-02-15T11:53:31;158849.69;;;19.00;83.53
49689;BME280;70518;51.400;7.428;2024-02-15T11:55:59;158871.72;;;19.08;82.97
49689;BME280;70518;51.400;7.428;2024-02-15T11:58:25;158863.94;;;19.05;83.01
49689;BME280;70518;51.400;7.428;2024-02-15T12:00:59;158828.91;;;18.92;81.68
49689;BME280;70518;51.400;7.428;2024-02-15T12:03:43;158861.34;;;19.04;82.46
49689;BME280;70518;51.400;7.428;2024-02-15T12:06:27;158869.13;;;19.07;80.84
49689;BME280;70518;51.400;7.428;2024-02-15T12:09:11;158888.59;;;19.15;80.98
49689;BME280;70518;51.400;7.428;2024-02-15T12:11:58;158892.47;;;19.16;81.47
49689;BME280;70518;51.400;7.428;2024-02-15T12:14:42;158900.25;;;19.19;80.77
49689;BME280;70518;51.400;7.428;2024-02-15T12:17:26;158911.94;;;19.24;80.63
49689;BME280;70518;51.400;7.428;2024-02-15T12:20:10;158918.41;;;19.26;79.48
49689;BME280;70518;51.400;7.428;2024-02-15T12:22:48;158926.19;;;19.29;80.66
49689;BME280;70518;51.400;7.428;2024-02-15T12:25:15;158931.38;;;19.31;80.36
49689;BME280;70518;51.400;7.428;2024-02-15T12:27:41;158940.47;;;19.35;80.20
49689;BME280;70518;51.400;7.428;2024-02-15T12:30:12;158952.16;;;19.39;80.41
49689;BME280;70518;51.400;7.428;2024-02-15T12:32:37;158953.47;;;19.40;79.89
49689;BME280;70518;51.400;7.428;2024-02-15T12:35:10;158984.59;;;19.52;79.85
49689;BME280;70518;51.400;7.428;2024-02-15T12:37:42;158985.91;;;19.53;79.52
49689;BME280;70518;51.400;7.428;2024-02-15T12:40:14;158983.28;;;19.52;78.47
49689;BME280;70518;51.400;7.428;2024-02-15T12:42:42;159019.59;;;19.66;77.38
49689;BME280;70518;51.400;7.428;2024-02-15T12:45:14;159028.69;;;19.69;77.86
49689;BME280;70518;51.400;7.428;2024-02-15T12:47:42;159035.16;;;19.72;78.56
49689;BME280;70518;51.400;7.428;2024-02-15T12:50:14;159040.38;;;19.74;77.62
49689;BME280;70518;51.400;7.428;2024-02-15T12:52:40;159068.91;;;19.85;76.42
49689;BME280;70518;51.400;7.428;2024-02-15T12:55:09;159080.56;;;19.89;75.29
49689;BME280;70518;51.400;7.428;2024-02-15T12:57:35;159106.53;;;20.00;74.95
49689;BME280;70518;51.400;7.428;2024-02-15T13:00:01;159124.72;;;20.07;75.35
49689;BME280;70518;51.400;7.428;2024-02-15T13:02:26;159129.88;;;20.09;73.06
49689;BME280;70518;51.400;7.428;2024-02-15T13:04:57;159154.56;;;20.18;73.63